Time;durP1;ratioP1;P1;durP2;ratioP2;P2;SDS_P1;SDS_P2;PMS_P1;PMS_P2;Temp;Humidity;BMP_temperature;BMP_pressure;BME280_temperature;BME280_humidity;BME280_pressure;Samples;Min_cycle;Max_cycle;Signal;HPM_P1;HPM_P2
2021/03/25 00:01:38;;;;;;;5.12;3.67;;;;;;;8.16;38.92;100575.55;1775487;80;21800;-79
2021/03/25 00:04:05;;;;;;;9.45;3.95;;;;;;;8.16;38.96;100572.89;1775693;80;21062;-78
2021/03/25 00:06:36;;;;;;;;;;;;;;;8.13;38.92;100572.20;1790928;80;21157;-82
2021/03/25 00:09:11;;;;;;;5.62;3.62;;;;;;;8.13;38.92;100569.53;1774827;80;20250;-82
2021/03/25 00:11:40;;;;;;;5.60;3.62;;;;;;;8.12;38.85;100563.81;1775950;80;21126;-80
2021/03/25 00:14:08;;;;;;;5.00;3.80;;;;;;;8.11;38.87;100559.47;1775635;80;21125;-79
2021/03/25 00:16:36;;;;;;;5.58;3.83;;;;;;;8.11;38.87;100560.80;1775398;80;21166;-82
2021/03/25 00:19:06;;;;;;;6.58;3.67;;;;;;;8.10;38.76;100553.79;1775583;79;21059;-81
2021/03/25 00:21:34;;;;;;;5.53;3.45;;;;;;;8.07;38.69;100558.55;1775559;80;21146;-81
2021/03/25 00:24:04;;;;;;;6.40;3.60;;;;;;;8.02;38.65;100560.80;1775648;80;21098;-81
2021/03/25 00:26:32;;;;;;;7.15;4.42;;;;;;;8.00;38.76;100555.61;1775603;80;21149;-79
2021/03/25 00:28:59;;;;;;;6.10;4.22;;;;;;;7.99;38.69;100553.91;1775749;80;21118;-80
2021/03/25 00:31:26;;;;;;;;;;;;;;;7.99;38.67;100549.91;1791430;80;21576;-80
2021/03/25 00:33:53;;;;;;;5.33;3.90;;;;;;;7.97;38.66;100550.55;1775777;80;20209;-80
2021/03/25 00:36:22;;;;;;;5.92;3.50;;;;;;;7.94;38.72;100553.48;1762518;80;21501;-80
2021/03/25 00:38:49;;;;;;;4.60;3.17;;;;;;;7.94;38.77;100551.31;1761350;80;21161;-80
2021/03/25 00:41:17;;;;;;;5.65;3.27;;;;;;;7.95;38.71;100552.53;1776833;80;21162;-77
2021/03/25 00:43:45;;;;;;;5.72;3.60;;;;;;;7.95;38.63;100552.53;1737187;80;21181;-80
2021/03/25 00:46:12;;;;;;;7.47;3.83;;;;;;;7.96;38.35;100553.36;1761613;80;21130;-78
2021/03/25 00:48:40;;;;;;;7.35;4.78;;;;;;;7.89;38.29;100544.56;1776573;79;21592;-77
2021/03/25 00:51:09;;;;;;;6.08;4.70;;;;;;;7.88;38.40;100549.55;1773607;80;21138;-77
2021/03/25 00:53:36;;;;;;;8.13;5.70;;;;;;;7.84;38.49;100551.30;1775599;80;21601;-81
2021/03/25 00:56:06;;;;;;;6.35;4.37;;;;;;;8.08;38.12;100537.56;1775493;80;21078;-81
2021/03/25 00:58:34;;;;;;;7.35;5.42;;;;;;;8.25;37.42;100543.53;1775647;80;21098;-78
2021/03/25 01:01:05;;;;;;;7.78;5.40;;;;;;;8.32;37.30;100538.48;1775722;80;21078;-78
2021/03/25 01:03:33;;;;;;;9.25;4.55;;;;;;;8.25;37.39;100532.02;1762789;80;21098;-80
2021/03/25 01:06:02;;;;;;;7.15;4.65;;;;;;;8.24;37.08;100533.84;1775597;80;21466;-77
2021/03/25 01:08:29;;;;;;;8.53;4.28;;;;;;;8.22;36.95;100527.83;1775703;80;21114;-79
2021/03/25 01:11:18;;;;;;;9.98;6.50;;;;;;;8.20;36.88;100523.59;1762429;80;21114;-80
2021/03/25 01:13:57;;;;;;;8.13;5.20;;;;;;;8.18;36.95;100518.91;1775816;80;26934;-79
2021/03/25 01:16:38;;;;;;;4.83;3.70;;;;;;;8.18;36.92;100525.08;1773936;80;21506;-79
2021/03/25 01:19:24;;;;;;;6.17;3.60;;;;;;;8.19;36.78;100526.77;1775911;79;21102;-83
2021/03/25 01:21:53;;;;;;;5.40;3.25;;;;;;;8.14;36.60;100531.19;1775484;80;21090;-80
2021/03/25 01:24:20;;;;;;;4.40;3.45;;;;;;;8.02;36.79;100534.97;1775629;80;21485;-78
2021/03/25 01:26:50;;;;;;;7.25;3.60;;;;;;;7.95;36.87;100532.98;1775768;79;21110;-82
2021/03/25 01:29:20;;;;;;;5.80;3.20;;;;;;;7.95;37.01;100525.86;1775600;80;21149;-80
2021/03/25 01:31:48;;;;;;;4.22;2.80;;;;;;;7.93;37.19;100530.47;1775432;80;21507;-79
2021/03/25 01:34:20;;;;;;;4.95;3.52;;;;;;;7.67;37.52;100533.31;1775762;79;21106;-81
2021/03/25 01:36:48;;;;;;;5.17;3.58;;;;;;;7.57;37.82;100534.12;1762960;80;21138;-78
2021/03/25 01:39:17;;;;;;;5.22;3.27;;;;;;;7.54;38.06;100524.23;1776198;80;21145;-80
2021/03/25 01:41:45;;;;;;;5.45;4.00;;;;;;;7.56;38.23;100521.79;1775747;79;21091;-78
2021/03/25 01:44:39;;;;;;;5.78;3.83;;;;;;;7.56;38.43;100524.95;1775586;80;21059;-79
2021/03/25 01:47:09;;;;;;;6.30;3.45;;;;;;;7.58;38.53;100529.14;1775639;80;21142;-79
2021/03/25 01:49:40;;;;;;;4.83;3.17;;;;;;;7.57;38.42;100521.30;1775674;79;21478;-76
2021/03/25 01:52:19;;;;;;;;;;;;;;;7.55;38.45;100523.27;1765160;80;21145;-80
2021/03/25 01:55:13;;;;;;;4.75;3.10;;;;;;;7.51;38.55;100518.70;1739965;82;20558;-79
2021/03/25 01:58:02;;;;;;;5.25;3.50;;;;;;;7.53;38.61;100521.22;1741003;82;21042;-78
2021/03/25 02:00:43;;;;;;;6.75;3.60;;;;;;;7.52;38.63;100517.71;1740904;82;21129;-82
2021/03/25 02:03:48;;;;;;;5.28;3.25;;;;;;;7.51;38.75;100516.52;1741011;82;21089;-82
2021/03/25 02:06:32;;;;;;;6.25;3.77;;;;;;;7.52;38.74;100517.71;1740831;82;21582;-78
2021/03/25 02:09:06;;;;;;;6.75;3.42;;;;;;;7.51;38.73;100516.03;1740882;82;21089;-81
2021/03/25 02:12:05;;;;;;;6.33;3.27;;;;;;;7.54;38.74;100522.89;1739958;82;21567;-78
2021/03/25 02:15:12;;;;;;;5.97;3.50;;;;;;;7.56;38.72;100523.12;1740855;82;21153;-79
2021/03/25 02:17:44;;;;;;;5.53;3.60;;;;;;;7.59;38.79;100526.86;1740992;82;21066;-79
2021/03/25 02:20:50;;;;;;;7.20;3.47;;;;;;;7.59;38.49;100518.86;1718529;82;21162;-79
2021/03/25 02:23:50;;;;;;;5.20;3.47;;;;;;;7.59;38.53;100521.52;1740958;82;21133;-80
2021/03/25 02:26:49;;;;;;;4.20;2.87;;;;;;;7.56;38.53;100519.13;1721261;82;21161;-82
2021/03/25 02:29:47;;;;;;;11.95;3.40;;;;;;;7.55;38.53;100521.44;1730547;83;21129;-80
2021/03/25 02:32:22;;;;;;;5.15;3.30;;;;;;;7.53;38.34;100518.05;1767604;81;21542;-78
2021/03/25 02:35:04;;;;;;;5.40;3.30;;;;;;;7.57;38.41;100522.14;1835775;76;22660;-81
2021/03/25 02:37:34;;;;;;;7.30;3.30;;;;;;;7.51;38.44;100524.03;1777144;79;21132;-80
2021/03/25 02:40:11;;;;;;;6.20;3.50;;;;;;;7.51;38.49;100520.52;1777131;79;21093;-77
2021/03/25 02:42:48;;;;;;;5.90;3.37;;;;;;;7.63;38.27;100524.77;1808967;79;21228;-79
2021/03/25 02:45:25;;;;;;;5.97;3.10;;;;;;;7.62;38.31;100523.89;1803009;78;21156;-76
2021/03/25 02:47:58;;;;;;;4.50;2.83;;;;;;;7.62;38.21;100517.73;1809768;78;21050;-80
2021/03/25 02:50:36;;;;;;;6.47;3.55;;;;;;;7.60;38.31;100517.88;1809524;79;21049;-83
2021/03/25 02:53:21;;;;;;;5.37;3.02;;;;;;;7.61;38.25;100522.22;1809827;78;21070;-81
2021/03/25 02:55:51;;;;;;;6.47;3.52;;;;;;;7.61;38.23;100516.88;1809673;78;21164;-79
2021/03/25 02:58:22;;;;;;;5.62;3.22;;;;;;;7.60;38.29;100521.87;1810500;79;21093;-77
2021/03/25 03:01:03;;;;;;;4.67;3.30;;;;;;;7.23;38.92;100522.97;1812553;78;21096;-81
2021/03/25 03:03:46;;;;;;;6.17;3.30;;;;;;;7.18;38.97;100520.36;1813205;79;21144;-80
2021/03/25 03:06:24;;;;;;;4.47;3.40;;;;;;;7.08;39.24;100519.80;1810830;79;21105;-77
2021/03/25 03:08:54;;;;;;;5.37;3.30;;;;;;;7.09;39.42;100515.35;1777559;79;21100;-79
2021/03/25 03:11:28;;;;;;;4.75;3.40;;;;;;;7.28;39.04;100511.91;1810014;79;21539;-80
2021/03/25 03:14:04;;;;;;;5.65;3.20;;;;;;;7.09;39.52;100510.03;1776574;79;21504;-81
2021/03/25 03:16:40;;;;;;;10.75;3.60;;;;;;;7.38;39.01;100506.95;1775952;79;21118;-84
2021/03/25 03:19:30;;;;;;;8.03;3.98;;;;;;;7.48;38.80;100510.97;1810108;78;21105;-78
2021/03/25 03:22:04;;;;;;;7.78;4.12;;;;;;;7.51;38.75;100517.36;1781949;79;20981;-82
2021/03/25 03:24:51;;;;;;;8.13;3.67;;;;;;;7.53;38.61;100510.55;1809160;79;21124;-78
2021/03/25 03:27:41;;;;;;;8.00;4.17;;;;;;;7.52;38.58;100511.05;1809794;79;21065;-80
2021/03/25 03:30:18;;;;;;;10.10;4.47;;;;;;;7.51;38.63;100508.03;1810002;79;21156;-79
2021/03/25 03:33:01;;;;;;;11.53;4.45;;;;;;;7.25;39.00;100506.84;1808511;79;21089;-77
2021/03/25 03:35:40;;;;;;;14.73;5.67;;;;;;;7.34;38.79;100510.02;1809495;78;21271;-80
2021/03/25 03:38:26;;;;;;;16.12;5.42;;;;;;;6.99;39.36;100509.95;1809549;79;21097;-78
2021/03/25 03:40:55;;;;;;;14.23;5.80;;;;;;;7.33;38.93;100511.00;1803866;79;21642;-77
2021/03/25 03:43:24;;;;;;;12.33;4.95;;;;;;;7.42;38.78;100512.86;1809943;79;21070;-76
2021/03/25 03:46:02;;;;;;;10.08;5.12;;;;;;;7.44;38.71;100513.55;1808218;79;21217;-76
2021/03/25 03:48:50;;;;;;;14.28;5.70;;;;;;;7.44;38.59;100512.22;1808553;79;21660;-77
2021/03/25 03:51:28;;;;;;;14.70;6.12;;;;;;;7.43;38.59;100507.03;1778487;79;21200;-79
2021/03/25 03:54:00;;;;;;;11.25;4.95;;;;;;;7.43;38.63;100503.88;1808336;79;21213;-81
2021/03/25 03:57:12;;;;;;;10.50;5.20;;;;;;;7.43;38.56;100504.37;1755432;79;21671;-77
2021/03/25 04:00:12;;;;;;;8.38;4.33;;;;;;;7.07;39.12;100507.97;1801886;79;21152;-78
2021/03/25 04:03:02;;;;;;;6.15;4.05;;;;;;;7.37;38.73;100505.77;1787586;77;21883;-79
2021/03/25 04:05:35;;;;;;;8.68;3.85;;;;;;;7.35;38.75;100517.03;1780183;77;21615;-79
2021/03/25 04:08:25;;;;;;;5.15;3.17;;;;;;;7.33;38.78;100506.52;1791474;77;21176;-78
2021/03/25 04:11:06;;;;;;;7.50;3.70;;;;;;;7.34;38.88;100510.86;1800848;79;21176;-76
2021/03/25 04:13:44;;;;;;;5.87;4.05;;;;;;;7.35;38.94;100505.04;1780411;77;21631;-78
2021/03/25 04:16:13;;;;;;;9.40;6.20;;;;;;;7.37;38.84;100515.09;1742573;80;21186;-78
2021/03/25 04:18:59;;;;;;;11.38;5.20;;;;;;;7.37;38.82;100512.42;1804624;79;21128;-81
2021/03/25 04:21:33;;;;;;;11.50;5.97;;;;;;;7.41;38.83;100514.34;1804914;79;21647;-80
2021/03/25 04:24:07;;;;;;;4.87;3.33;;;;;;;7.43;38.81;100515.86;1778211;79;21164;-82
2021/03/25 04:27:03;;;;;;;5.78;3.85;;;;;;;7.43;38.78;100518.53;1779658;79;21092;-79
2021/03/25 04:29:40;;;;;;;8.70;4.80;;;;;;;7.42;38.73;100512.86;1775081;80;21223;-78
2021/03/25 04:32:09;;;;;;;4.78;3.62;;;;;;;7.43;38.72;100522.53;1779433;79;21180;-83
2021/03/25 04:34:36;;;;;;;6.03;3.08;;;;;;;7.42;38.72;100523.52;1787522;79;21351;-79
2021/03/25 04:37:04;;;;;;;;;;;;;;;7.39;38.79;100523.78;1714575;79;21315;-78
2021/03/25 04:39:31;;;;;;;4.22;2.85;;;;;;;7.37;38.79;100522.59;1710855;80;20281;-79
2021/03/25 04:41:59;;;;;;;5.20;3.50;;;;;;;7.35;38.87;100525.02;1680014;83;21212;-79
2021/03/25 04:44:46;;;;;;;9.70;4.28;;;;;;;7.36;38.84;100521.41;1726446;79;21236;-79
2021/03/25 04:47:24;;;;;;;6.30;4.10;;;;;;;7.38;38.87;100522.09;1778794;78;21190;-79
2021/03/25 04:49:57;;;;;;;6.55;4.08;;;;;;;7.39;38.95;100521.11;1787600;79;21133;-78
2021/03/25 04:52:28;;;;;;;8.95;4.40;;;;;;;7.43;38.99;100518.53;1801330;79;21481;-78
2021/03/25 04:55:17;;;;;;;5.70;4.00;;;;;;;7.44;38.96;100521.54;1802661;78;21219;-79
2021/03/25 04:57:58;;;;;;;6.37;4.28;;;;;;;7.46;38.94;100520.93;1805237;77;21180;-79
2021/03/25 05:00:33;;;;;;;9.08;4.20;;;;;;;7.49;38.99;100521.97;1790363;79;21184;-80
2021/03/25 05:03:05;;;;;;;6.62;3.72;;;;;;;7.50;38.90;100509.52;1789825;79;21212;-78
2021/03/25 05:05:33;;;;;;;8.65;4.00;;;;;;;7.54;38.92;100518.43;1786531;79;21157;-77
2021/03/25 05:08:07;;;;;;;5.85;3.83;;;;;;;7.55;38.88;100522.78;1748833;79;21607;-78
2021/03/25 05:11:13;;;;;;;5.92;3.52;;;;;;;7.57;38.91;100526.13;1807252;78;21203;-77
2021/03/25 05:13:44;;;;;;;5.30;3.30;;;;;;;7.58;38.74;100534.48;1804409;77;21189;-78
2021/03/25 05:16:50;;;;;;;6.05;3.50;;;;;;;7.59;38.72;100531.34;1798223;79;21187;-78
2021/03/25 05:19:29;;;;;;;6.45;3.80;;;;;;;7.59;38.74;100532.69;1779018;78;21253;-78
2021/03/25 05:22:06;;;;;;;4.53;3.35;;;;;;;7.44;39.10;100542.02;1788757;79;21148;-78
2021/03/25 05:24:46;;;;;;;6.97;3.50;;;;;;;7.59;38.88;100550.84;1811753;77;21846;-78
2021/03/25 05:27:19;;;;;;;5.58;3.00;;;;;;;7.63;38.71;100542.09;1769938;79;21204;-77
2021/03/25 05:29:48;;;;;;;5.60;3.52;;;;;;;7.65;38.65;100547.28;1777166;79;21178;-76
2021/03/25 05:32:18;;;;;;;6.30;3.37;;;;;;;7.67;38.64;100545.30;1800706;79;21185;-77
2021/03/25 05:34:47;;;;;;;6.00;3.52;;;;;;;7.67;38.46;100547.97;1797423;77;22292;-79
2021/03/25 05:37:15;;;;;;;7.87;4.28;;;;;;;7.65;38.48;100552.11;1757691;79;21650;-79
2021/03/25 05:39:44;;;;;;;7.47;4.12;;;;;;;7.66;38.38;100555.63;1779714;79;21183;-76
2021/03/25 05:42:35;;;;;;;10.68;5.40;;;;;;;7.65;38.31;100558.78;1780377;79;21201;-77
2021/03/25 05:45:35;;;;;;;8.08;4.45;;;;;;;7.67;38.43;100559.47;1806365;77;21141;-76
2021/03/25 05:48:42;;;;;;;9.93;5.05;;;;;;;7.70;38.62;100559.21;1775551;79;21128;-77
2021/03/25 05:51:24;;;;;;;10.25;5.17;;;;;;;7.74;38.59;100563.78;1755866;79;21219;-75
2021/03/25 05:54:30;;;;;;;8.10;4.35;;;;;;;7.76;38.56;100563.98;1757797;77;21159;-81
2021/03/25 05:57:27;;;;;;;5.97;3.92;;;;;;;7.80;38.61;100568.55;1780899;79;21179;-79
2021/03/25 06:00:31;;;;;;;6.92;4.15;;;;;;;7.81;38.44;100566.23;1760733;77;21140;-79
2021/03/25 06:03:12;;;;;;;6.83;3.77;;;;;;;7.79;38.37;100572.21;1787003;77;21010;-80
2021/03/25 06:05:43;;;;;;;5.55;3.92;;;;;;;7.78;38.42;100572.70;1780509;77;21672;-76
2021/03/25 06:08:35;;;;;;;10.40;4.67;;;;;;;7.81;38.49;100566.23;1803679;77;21686;-77
2021/03/25 06:11:20;;;;;;;6.92;4.12;;;;;;;7.89;38.35;100568.56;1782403;77;21201;-77
2021/03/25 06:14:15;;;;;;;10.25;4.70;;;;;;;7.94;38.29;100569.48;1793389;77;21207;-77
2021/03/25 06:17:22;;;;;;;7.22;4.30;;;;;;;7.99;38.26;100567.73;1794559;77;21252;-77
2021/03/25 06:20:32;;;;;;;7.78;4.30;;;;;;;8.02;38.05;100569.64;1792961;77;21680;-77
2021/03/25 06:23:36;;;;;;;6.55;4.35;;;;;;;8.01;38.13;100573.30;1801844;77;21185;-77
2021/03/25 06:26:25;;;;;;;8.73;4.53;;;;;;;8.04;38.29;100573.03;1790784;77;21743;-75
2021/03/25 06:29:02;;;;;;;7.90;4.28;;;;;;;8.10;38.56;100584.47;1795544;77;21687;-75
2021/03/25 06:32:01;;;;;;;7.55;4.12;;;;;;;8.21;38.37;100581.31;1769424;79;21133;-76
2021/03/25 06:34:43;;;;;;;6.95;4.03;;;;;;;8.26;38.28;100581.73;1794223;77;21105;-75
2021/03/25 06:37:39;;;;;;;6.62;4.12;;;;;;;8.27;38.15;100582.11;1794614;77;21143;-76
2021/03/25 06:40:40;;;;;;;8.55;4.15;;;;;;;8.28;38.30;100574.44;1793824;77;21069;-77
2021/03/25 06:43:42;;;;;;;8.50;4.42;;;;;;;8.30;38.41;100582.64;1791080;77;21113;-76
2021/03/25 06:46:24;;;;;;;9.33;4.55;;;;;;;8.33;38.50;100589.54;1790221;78;21138;-77
2021/03/25 06:49:01;;;;;;;7.60;4.50;;;;;;;8.36;38.65;100582.59;1750027;79;21172;-77
2021/03/25 06:51:32;;;;;;;;;;;;;;;8.39;38.58;100582.33;1792196;79;21134;-77
2021/03/25 06:54:18;;;;;;;5.60;4.00;;;;;;;8.41;38.64;100581.70;1787627;77;20329;-78
2021/03/25 06:56:51;;;;;;;7.62;4.65;;;;;;;8.42;38.69;100578.05;1795514;77;21113;-77
2021/03/25 06:59:26;;;;;;;6.53;4.12;;;;;;;8.45;38.72;100576.44;1793331;77;21010;-76
2021/03/25 07:02:09;;;;;;;6.35;4.60;;;;;;;8.49;38.69;100572.47;1790653;77;20969;-76
2021/03/25 07:04:40;;;;;;;7.65;5.20;;;;;;;8.52;38.54;100582.05;1761936;77;21508;-77
2021/03/25 07:07:32;;;;;;;9.93;4.85;;;;;;;8.51;38.62;100572.35;1729691;81;21173;-78
2021/03/25 07:10:03;;;;;;;9.33;5.10;;;;;;;8.54;38.56;100574.72;1797159;78;21153;-77
2021/03/25 07:12:38;;;;;;;12.35;4.60;;;;;;;8.57;38.62;100575.78;1794741;78;21149;-77
2021/03/25 07:15:08;;;;;;;7.33;4.87;;;;;;;8.60;38.65;100578.17;1793182;77;21123;-76
2021/03/25 07:17:40;;;;;;;8.70;5.72;;;;;;;8.62;38.61;100577.03;1793683;77;21580;-77
2021/03/25 07:20:30;;;;;;;9.18;5.00;;;;;;;8.61;38.61;100576.69;1782456;78;21643;-79
2021/03/25 07:23:12;;;;;;;6.47;4.28;;;;;;;8.63;38.62;100580.08;1803177;77;21150;-76
2021/03/25 07:25:43;;;;;;;9.55;4.72;;;;;;;8.66;38.75;100573.59;1787517;77;21597;-77
2021/03/25 07:28:15;;;;;;;8.23;4.03;;;;;;;8.69;38.87;100575.14;1770570;77;21168;-77
2021/03/25 07:31:01;;;;;;;8.15;5.42;;;;;;;8.74;38.86;100580.40;1795576;77;21138;-76
2021/03/25 07:33:31;;;;;;;8.45;5.40;;;;;;;8.76;38.82;100585.59;1776501;78;21125;-78
2021/03/25 07:36:12;;;;;;;9.45;6.37;;;;;;;8.78;38.84;100585.80;1793525;77;21140;-76
2021/03/25 07:38:39;;;;;;;11.57;6.87;;;;;;;8.81;38.88;100588.66;1739775;81;21150;-76
2021/03/25 07:41:21;;;;;;;8.48;4.62;;;;;;;8.83;38.88;100586.71;1797091;78;21137;-76
2021/03/25 07:44:04;;;;;;;7.08;4.50;;;;;;;8.85;38.84;100594.07;1791897;77;21162;-76
2021/03/25 07:46:48;;;;;;;7.40;4.97;;;;;;;8.83;38.92;100588.88;1789353;77;21161;-78
2021/03/25 07:49:21;;;;;;;6.35;4.67;;;;;;;8.83;39.02;100586.71;1786803;77;21137;-78
2021/03/25 07:52:05;;;;;;;6.80;4.72;;;;;;;8.85;39.03;100586.90;1789442;77;21160;-76
2021/03/25 07:54:40;;;;;;;6.65;4.75;;;;;;;8.85;39.06;100586.06;1789446;77;21105;-76
2021/03/25 07:57:16;;;;;;;7.70;4.95;;;;;;;8.84;39.16;100581.71;1787114;77;21516;-76
2021/03/25 07:59:54;;;;;;;8.80;5.28;;;;;;;8.86;39.22;100587.27;1788430;77;21807;-76
2021/03/25 08:02:33;;;;;;;7.92;5.40;;;;;;;8.87;39.26;100581.44;1790340;77;21148;-77
2021/03/25 08:05:30;;;;;;;8.23;5.17;;;;;;;8.88;39.25;100583.11;1791255;77;21682;-75
2021/03/25 08:08:02;;;;;;;9.63;4.97;;;;;;;8.90;39.21;100583.80;1781833;77;21597;-78
2021/03/25 08:10:43;;;;;;;8.45;4.87;;;;;;;8.91;39.25;100574.82;1758922;77;21549;-75
2021/03/25 08:13:22;;;;;;;7.22;3.87;;;;;;;8.92;39.23;100572.49;1764009;79;21094;-76
2021/03/25 08:15:54;;;;;;;6.30;3.92;;;;;;;8.93;39.21;100575.50;1788533;77;21208;-76
2021/03/25 08:18:33;;;;;;;5.78;4.35;;;;;;;8.94;39.25;100574.51;1762605;77;21058;-77
2021/03/25 08:21:11;;;;;;;7.50;4.40;;;;;;;8.95;39.32;100573.55;1793178;77;21577;-77
2021/03/25 08:24:08;;;;;;;7.70;4.03;;;;;;;8.98;39.39;100579.91;1793204;77;21680;-77
2021/03/25 08:26:56;;;;;;;7.72;4.75;;;;;;;9.01;39.34;100583.64;1789999;77;21128;-74
2021/03/25 08:29:27;;;;;;;;;;;;;;;9.01;39.24;100580.97;1738977;80;21134;-76
2021/03/25 08:32:14;;;;;;;7.83;5.50;;;;;;;9.02;39.31;100587.16;1711980;80;20267;-75
2021/03/25 08:35:05;;;;;;;8.03;5.05;;;;;;;9.00;39.30;100588.64;1787943;77;21439;-77
2021/03/25 08:38:11;;;;;;;7.47;4.70;;;;;;;9.02;39.46;100591.16;1790628;77;21581;-76
2021/03/25 08:40:46;;;;;;;8.05;4.35;;;;;;;9.04;39.45;100591.88;1788231;77;21117;-75
2021/03/25 08:43:38;;;;;;;5.67;4.42;;;;;;;9.05;39.53;100590.88;1711627;80;21147;-79
2021/03/25 08:46:11;;;;;;;8.38;4.50;;;;;;;9.07;39.56;100592.90;1791975;77;21674;-76
2021/03/25 08:48:58;;;;;;;6.95;4.92;;;;;;;9.10;39.54;100591.28;1789922;77;21120;-77
2021/03/25 08:51:40;;;;;;;7.75;5.25;;;;;;;9.13;39.55;100593.17;1795881;77;21091;-77
2021/03/25 08:54:30;;;;;;;6.67;4.78;;;;;;;9.17;39.59;100588.86;1760728;77;21135;-80
2021/03/25 08:57:21;;;;;;;12.82;7.28;;;;;;;9.20;39.73;100585.41;1793424;77;21157;-78
2021/03/25 09:00:01;;;;;;;9.10;6.53;;;;;;;9.23;39.79;100581.11;1792309;77;21656;-78
2021/03/25 09:02:50;;;;;;;9.98;5.95;;;;;;;9.27;39.73;100582.51;1786024;78;22314;-77
2021/03/25 09:05:47;;;;;;;9.40;6.15;;;;;;;9.31;39.67;100580.36;1789576;77;21553;-77
2021/03/25 09:08:29;;;;;;;9.23;5.95;;;;;;;9.40;39.55;100576.80;1793698;78;22755;-78
2021/03/25 09:11:04;;;;;;;8.40;6.03;;;;;;;9.38;39.47;100580.13;1735758;79;21180;-77
2021/03/25 09:13:38;;;;;;;9.30;5.53;;;;;;;9.40;39.47;100580.81;1787610;78;21213;-77
2021/03/25 09:16:13;;;;;;;10.08;5.97;;;;;;;9.44;39.32;100576.86;1795233;78;21161;-77
2021/03/25 09:18:45;;;;;;;11.73;5.67;;;;;;;9.46;39.28;100576.23;1790705;79;21132;-76
2021/03/25 09:21:26;;;;;;;13.30;5.95;;;;;;;9.49;39.21;100585.27;1769520;79;21141;-78
2021/03/25 09:24:07;;;;;;;16.48;7.45;;;;;;;9.52;39.18;100584.98;1763026;80;21133;-77
2021/03/25 09:26:56;;;;;;;13.83;6.35;;;;;;;9.54;39.15;100588.88;1760823;80;21177;-78
2021/03/25 09:29:32;;;;;;;12.25;6.20;;;;;;;9.55;39.04;100591.39;1760442;80;21151;-78
2021/03/25 09:32:06;;;;;;;13.70;5.75;;;;;;;9.57;39.00;100592.56;1764377;80;21417;-78
2021/03/25 09:34:51;;;;;;;9.77;5.90;;;;;;;9.59;38.95;100596.79;1744810;79;21138;-77
2021/03/25 09:37:29;;;;;;;10.03;5.90;;;;;;;9.59;38.96;100597.28;1743883;79;21129;-79
2021/03/25 09:40:11;;;;;;;8.98;5.25;;;;;;;9.59;39.06;100594.11;1768180;79;21105;-77
2021/03/25 09:42:41;;;;;;;7.72;4.62;;;;;;;9.60;39.14;100591.78;1773220;79;21148;-76
2021/03/25 09:45:23;;;;;;;6.95;5.17;;;;;;;9.61;39.22;100590.78;1770919;80;21094;-76
2021/03/25 09:48:02;;;;;;;9.95;6.75;;;;;;;9.68;39.19;100592.88;1859446;76;24170;-78
2021/03/25 09:50:31;;;;;;;9.75;4.92;;;;;;;9.69;39.21;100595.89;1819844;77;21180;-76
2021/03/25 09:53:10;;;;;;;6.33;4.40;;;;;;;9.71;39.17;100597.41;1818283;77;21379;-76
2021/03/25 09:56:23;;;;;;;7.10;3.55;;;;;;;9.71;39.17;100592.56;1817035;77;21168;-77
2021/03/25 09:58:59;;;;;;;5.53;3.92;;;;;;;9.72;39.28;100595.58;1789342;77;21113;-75
2021/03/25 10:01:54;;;;;;;6.67;4.22;;;;;;;9.76;39.07;100600.98;1792320;77;21027;-78
2021/03/25 10:04:32;;;;;;;13.45;4.78;;;;;;;9.75;39.16;100594.79;1819785;77;21125;-78
2021/03/25 10:07:15;;;;;;;7.35;4.25;;;;;;;9.79;39.18;100596.67;1821727;77;21101;-76
2021/03/25 10:09:57;;;;;;;5.65;4.20;;;;;;;9.83;39.20;100598.06;1818064;77;21217;-75
2021/03/25 10:13:06;;;;;;;6.10;3.83;;;;;;;9.81;39.12;100590.66;1817332;77;21214;-76
2021/03/25 10:15:59;;;;;;;6.20;4.42;;;;;;;9.84;39.22;100595.72;1817639;77;21364;-78
2021/03/25 10:18:36;;;;;;;7.90;4.15;;;;;;;9.88;39.21;100597.95;1810175;77;21399;-79
2021/03/25 10:21:14;;;;;;;7.78;3.72;;;;;;;9.91;38.91;100600.34;1817185;77;21196;-77
2021/03/25 10:23:57;;;;;;;6.42;3.50;;;;;;;9.92;38.83;100590.47;1817652;77;21201;-79
2021/03/25 10:26:35;;;;;;;6.12;3.80;;;;;;;9.94;38.79;100591.15;1820250;77;21195;-76
2021/03/25 10:29:18;;;;;;;5.30;3.65;;;;;;;9.97;38.64;100595.38;1791359;77;21133;-78
2021/03/25 10:31:55;;;;;;;5.35;3.65;;;;;;;9.99;38.83;100590.70;1818273;77;21190;-76
2021/03/25 10:34:34;;;;;;;6.92;4.15;;;;;;;10.03;39.02;100592.92;1813947;77;21055;-77
2021/03/25 10:37:39;;;;;;;7.15;4.03;;;;;;;10.05;39.19;100590.95;1820880;77;21182;-76
2021/03/25 10:40:24;;;;;;;5.00;3.80;;;;;;;10.10;39.30;100591.33;1822999;77;21190;-78
2021/03/25 10:42:58;;;;;;;5.55;3.58;;;;;;;10.13;39.28;100587.02;1819844;77;21386;-77
2021/03/25 10:45:49;;;;;;;5.20;3.42;;;;;;;10.16;39.19;100593.39;1812899;77;21053;-75
2021/03/25 10:48:38;;;;;;;10.85;4.15;;;;;;;10.21;39.22;100588.08;1810624;77;21177;-80
2021/03/25 10:51:23;;;;;;;6.30;3.77;;;;;;;10.25;39.39;100589.49;1823031;77;21193;-81
2021/03/25 10:53:54;;;;;;;6.78;4.08;;;;;;;10.28;39.25;100582.50;1816454;77;21648;-78
2021/03/25 10:56:39;;;;;;;9.08;4.45;;;;;;;10.32;39.37;100589.23;1819243;77;21164;-76
2021/03/25 10:59:18;;;;;;;9.25;3.58;;;;;;;10.37;39.31;100589.62;1812977;77;22007;-75
2021/03/25 11:01:49;;;;;;;6.65;3.52;;;;;;;10.42;39.23;100591.33;1819141;77;21166;-75
2021/03/25 11:04:27;;;;;;;10.25;4.30;;;;;;;10.48;39.30;100592.05;1817022;77;21147;-77
2021/03/25 11:06:55;;;;;;;6.70;4.75;;;;;;;10.52;39.34;100593.92;1818862;77;21127;-78
2021/03/25 11:09:33;;;;;;;9.35;4.75;;;;;;;10.56;39.32;100580.06;1815902;77;21146;-77
2021/03/25 11:12:16;;;;;;;10.25;3.83;;;;;;;10.60;39.47;100578.77;1822626;77;21555;-77
2021/03/25 11:14:52;;;;;;;5.00;3.85;;;;;;;10.63;39.53;100575.78;1819127;77;21224;-78
2021/03/25 11:17:31;;;;;;;6.97;3.65;;;;;;;10.65;39.64;100575.61;1819746;77;22012;-77
2021/03/25 11:20:03;;;;;;;6.35;3.62;;;;;;;10.71;39.76;100579.00;1778976;79;21645;-77
2021/03/25 11:22:32;;;;;;;7.83;3.80;;;;;;;10.74;39.76;100576.52;1820013;77;21089;-76
2021/03/25 11:25:03;;;;;;;5.53;3.65;;;;;;;10.77;39.77;100581.58;1732104;80;21093;-79
2021/03/25 11:27:32;;;;;;;7.45;3.72;;;;;;;10.79;39.88;100570.19;1732532;80;21217;-78
2021/03/25 11:30:09;;;;;;;6.33;3.27;;;;;;;10.81;39.84;100576.22;1758976;80;21225;-78
2021/03/25 11:32:39;;;;;;;9.00;3.75;;;;;;;10.83;39.80;100575.08;1814003;77;21178;-77
2021/03/25 11:35:31;;;;;;;7.42;3.95;;;;;;;10.84;39.81;100568.72;1824767;77;20963;-78
2021/03/25 11:38:26;;;;;;;6.37;4.10;;;;;;;10.87;39.91;100573.77;1821889;77;21732;-78
2021/03/25 11:41:03;;;;;;;5.47;3.75;;;;;;;10.89;39.93;100570.92;1817755;77;21208;-78
2021/03/25 11:43:51;;;;;;;8.25;4.30;;;;;;;10.92;40.02;100570.62;1815898;77;21098;-76
2021/03/25 11:46:49;;;;;;;;;;;;;;;10.92;40.02;100573.30;1834117;77;21057;-76
2021/03/25 11:49:19;;;;;;;6.47;3.55;;;;;;;10.94;40.01;100567.27;1816001;77;20262;-77
2021/03/25 11:52:01;;;;;;;9.28;5.42;;;;;;;10.96;40.04;100571.16;1790138;77;21200;-78
2021/03/25 11:54:36;;;;;;;9.38;4.12;;;;;;;11.00;40.11;100566.66;1824889;77;21553;-75
2021/03/25 11:57:31;;;;;;;7.90;4.17;;;;;;;11.03;40.12;100562.30;1815769;77;21225;-76
2021/03/25 12:00:23;;;;;;;6.83;3.67;;;;;;;11.08;40.19;100561.34;1814625;77;21198;-76
2021/03/25 12:02:55;;;;;;;5.37;3.75;;;;;;;11.11;40.14;100561.01;1821476;77;21141;-78
2021/03/25 12:05:34;;;;;;;4.78;3.40;;;;;;;11.16;40.17;100561.88;1788736;77;21189;-77
2021/03/25 12:08:14;;;;;;;5.05;3.10;;;;;;;11.17;40.20;100564.41;1813204;77;21204;-78
2021/03/25 12:11:14;;;;;;;8.98;3.60;;;;;;;11.21;40.23;100554.69;1815996;77;21675;-75
2021/03/25 12:13:44;;;;;;;5.40;3.37;;;;;;;11.24;40.12;100566.45;1804114;77;21184;-77
2021/03/25 12:16:20;;;;;;;7.67;3.65;;;;;;;11.25;40.10;100562.25;1812393;77;21191;-76
2021/03/25 12:18:48;;;;;;;4.25;2.95;;;;;;;11.29;40.04;100564.12;1819359;77;21185;-78
2021/03/25 12:21:20;;;;;;;5.65;3.22;;;;;;;11.32;40.07;100557.11;1819478;77;21408;-77
2021/03/25 12:23:55;;;;;;;9.15;3.65;;;;;;;11.36;40.00;100557.97;1767588;77;20999;-77
2021/03/25 12:26:23;;;;;;;4.62;3.40;;;;;;;11.38;40.07;100561.31;1758342;80;21208;-78
2021/03/25 12:28:52;;;;;;;7.53;3.20;;;;;;;11.43;40.02;100558.15;1760957;79;21216;-77
2021/03/25 12:31:33;;;;;;;4.08;3.22;;;;;;;11.48;40.13;100559.84;1756483;80;21181;-78